sensor_id;sensor_type;location;lat;lon;timestamp;temperature;humidity
10388;DHT22;5240;51.128;4.566;2023-06-26T00:00:46;24.60;99.90
10388;DHT22;5240;51.128;4.566;2023-06-26T00:03:14;24.50;99.90
10388;DHT22;5240;51.128;4.566;2023-06-26T00:05:41;24.50;99.90
10388;DHT22;5240;51.128;4.566;2023-06-26T00:08:08;24.40;99.90
10388;DHT22;5240;51.128;4.566;2023-06-26T00:10:35;24.30;99.90
10388;DHT22;5240;51.128;4.566;2023-06-26T00:13:02;24.20;99.90
10388;DHT22;5240;51.128;4.566;2023-06-26T00:15:29;24.10;99.90
10388;DHT22;5240;51.128;4.566;2023-06-26T00:17:58;24.00;99.90
10388;DHT22;5240;51.128;4.566;2023-06-26T00:20:25;24.00;99.90
10388;DHT22;5240;51.128;4.566;2023-06-26T00:22:52;24.00;99.90
10388;DHT22;5240;51.128;4.566;2023-06-26T00:25:21;24.00;99.90
10388;DHT22;5240;51.128;4.566;2023-06-26T00:27:48;24.00;99.90
10388;DHT22;5240;51.128;4.566;2023-06-26T00:30:15;23.90;99.90
10388;DHT22;5240;51.128;4.566;2023-06-26T00:32:42;23.80;99.90
10388;DHT22;5240;51.128;4.566;2023-06-26T00:35:10;23.70;99.90
10388;DHT22;5240;51.128;4.566;2023-06-26T00:37:37;23.70;99.90
10388;DHT22;5240;51.128;4.566;2023-06-26T00:40:05;23.70;99.90
10388;DHT22;5240;51.128;4.566;2023-06-26T00:42:32;23.70;99.90
10388;DHT22;5240;51.128;4.566;2023-06-26T00:44:59;23.60;99.90
10388;DHT22;5240;51.128;4.566;2023-06-26T00:47:27;23.50;99.90
10388;DHT22;5240;51.128;4.566;2023-06-26T00:49:54;23.40;99.90
10388;DHT22;5240;51.128;4.566;2023-06-26T00:52:24;23.30;99.90
10388;DHT22;5240;51.128;4.566;2023-06-26T00:54:51;23.20;99.90
10388;DHT22;5240;51.128;4.566;2023-06-26T00:57:19;23.10;99.90
10388;DHT22;5240;51.128;4.566;2023-06-26T00:59:46;23.10;99.90
10388;DHT22;5240;51.128;4.566;2023-06-26T01:02:14;23.00;99.90
10388;DHT22;5240;51.128;4.566;2023-06-26T01:04:46;22.90;99.90
10388;DHT22;5240;51.128;4.566;2023-06-26T01:07:15;22.80;99.90
10388;DHT22;5240;51.128;4.566;2023-06-26T01:09:46;22.80;99.90
10388;DHT22;5240;51.128;4.566;2023-06-26T01:12:14;22.70;99.90
10388;DHT22;5240;51.128;4.566;2023-06-26T01:14:41;22.80;99.90
10388;DHT22;5240;51.128;4.566;2023-06-26T01:17:09;22.80;99.90
10388;DHT22;5240;51.128;4.566;2023-06-26T01:19:41;22.70;99.90
10388;DHT22;5240;51.128;4.566;2023-06-26T01:22:16;22.70;99.90
10388;DHT22;5240;51.128;4.566;2023-06-26T01:24:56;22.80;99.90
10388;DHT22;5240;51.128;4.566;2023-06-26T01:27:30;22.70;99.90
10388;DHT22;5240;51.128;4.566;2023-06-26T01:30:00;22.70;99.90
10388;DHT22;5240;51.128;4.566;2023-06-26T01:32:29;22.70;99.90
10388;DHT22;5240;51.128;4.566;2023-06-26T01:34:57;22.70;99.90
10388;DHT22;5240;51.128;4.566;2023-06-26T01:37:24;22.60;99.90
10388;DHT22;5240;51.128;4.566;2023-06-26T01:39:51;22.50;99.90
10388;DHT22;5240;51.128;4.566;2023-06-26T01:42:18;22.50;99.90
10388;DHT22;5240;51.128;4.566;2023-06-26T01:44:47;22.50;99.90
10388;DHT22;5240;51.128;4.566;2023-06-26T01:47:18;22.40;99.90
10388;DHT22;5240;51.128;4.566;2023-06-26T01:49:49;22.40;99.90
10388;DHT22;5240;51.128;4.566;2023-06-26T01:52:20;22.30;99.90
10388;DHT22;5240;51.128;4.566;2023-06-26T01:54:58;22.20;99.90
10388;DHT22;5240;51.128;4.566;2023-06-26T01:57:29;22.20;99.90
10388;DHT22;5240;51.128;4.566;2023-06-26T01:59:59;22.20;99.90
10388;DHT22;5240;51.128;4.566;2023-06-26T02:02:28;22.10;99.90
10388;DHT22;5240;51.128;4.566;2023-06-26T02:04:56;22.10;99.90
10388;DHT22;5240;51.128;4.566;2023-06-26T02:07:23;22.10;99.90
10388;DHT22;5240;51.128;4.566;2023-06-26T02:09:50;22.10;99.90
10388;DHT22;5240;51.128;4.566;2023-06-26T02:12:17;22.10;99.90
10388;DHT22;5240;51.128;4.566;2023-06-26T02:14:44;22.10;99.90
10388;DHT22;5240;51.128;4.566;2023-06-26T02:17:12;22.10;99.90
10388;DHT22;5240;51.128;4.566;2023-06-26T02:19:39;22.10;99.90
10388;DHT22;5240;51.128;4.566;2023-06-26T02:22:13;22.10;99.90
10388;DHT22;5240;51.128;4.566;2023-06-26T02:24:40;22.10;99.90
10388;DHT22;5240;51.128;4.566;2023-06-26T02:27:07;22.00;99.90
10388;DHT22;5240;51.128;4.566;2023-06-26T02:29:34;22.00;99.90
10388;DHT22;5240;51.128;4.566;2023-06-26T02:32:01;22.00;99.90
10388;DHT22;5240;51.128;4.566;2023-06-26T02:34:29;22.00;99.90
10388;DHT22;5240;51.128;4.566;2023-06-26T02:36:56;21.90;99.90
10388;DHT22;5240;51.128;4.566;2023-06-26T02:39:24;21.80;99.90
10388;DHT22;5240;51.128;4.566;2023-06-26T02:41:51;21.80;99.90
10388;DHT22;5240;51.128;4.566;2023-06-26T02:44:18;21.80;99.90
10388;DHT22;5240;51.128;4.566;2023-06-26T02:46:46;21.80;99.90
10388;DHT22;5240;51.128;4.566;2023-06-26T02:49:13;21.80;99.90
10388;DHT22;5240;51.128;4.566;2023-06-26T02:51:42;21.80;99.90
10388;DHT22;5240;51.128;4.566;2023-06-26T02:54:09;21.80;99.90
10388;DHT22;5240;51.128;4.566;2023-06-26T02:56:36;21.80;99.90
10388;DHT22;5240;51.128;4.566;2023-06-26T02:59:03;21.70;99.90
10388;DHT22;5240;51.128;4.566;2023-06-26T03:01:30;21.70;99.90
10388;DHT22;5240;51.128;4.566;2023-06-26T03:03:57;21.70;99.90
10388;DHT22;5240;51.128;4.566;2023-06-26T03:06:26;21.60;99.90
10388;DHT22;5240;51.128;4.566;2023-06-26T03:08:54;21.60;99.90
10388;DHT22;5240;51.128;4.566;2023-06-26T03:11:21;21.50;99.90
10388;DHT22;5240;51.128;4.566;2023-06-26T03:13:48;21.50;99.90
10388;DHT22;5240;51.128;4.566;2023-06-26T03:16:15;21.40;99.90
10388;DHT22;5240;51.128;4.566;2023-06-26T03:18:42;21.30;99.90
10388;DHT22;5240;51.128;4.566;2023-06-26T03:21:09;21.30;99.90
10388;DHT22;5240;51.128;4.566;2023-06-26T03:23:36;21.20;99.90
10388;DHT22;5240;51.128;4.566;2023-06-26T03:26:05;21.20;99.90
10388;DHT22;5240;51.128;4.566;2023-06-26T03:28:32;21.10;99.90
10388;DHT22;5240;51.128;4.566;2023-06-26T03:30:59;21.00;99.90
10388;DHT22;5240;51.128;4.566;2023-06-26T03:33:26;21.00;99.90
10388;DHT22;5240;51.128;4.566;2023-06-26T03:35:53;20.90;99.90
10388;DHT22;5240;51.128;4.566;2023-06-26T03:38:21;20.90;99.90
10388;DHT22;5240;51.128;4.566;2023-06-26T03:40:49;20.80;99.90
10388;DHT22;5240;51.128;4.566;2023-06-26T03:43:18;20.70;99.90
10388;DHT22;5240;51.128;4.566;2023-06-26T03:45:45;20.70;99.90
10388;DHT22;5240;51.128;4.566;2023-06-26T03:48:12;20.70;99.90
10388;DHT22;5240;51.128;4.566;2023-06-26T03:50:39;20.70;99.90
10388;DHT22;5240;51.128;4.566;2023-06-26T03:53:06;20.70;99.90
10388;DHT22;5240;51.128;4.566;2023-06-26T03:55:33;20.70;99.90
10388;DHT22;5240;51.128;4.566;2023-06-26T03:58:01;20.60;99.90
10388;DHT22;5240;51.128;4.566;2023-06-26T04:00:29;20.50;99.90
10388;DHT22;5240;51.128;4.566;2023-06-26T04:02:56;20.30;99.90
10388;DHT22;5240;51.128;4.566;2023-06-26T04:05:24;20.30;99.90
10388;DHT22;5240;51.128;4.566;2023-06-26T04:07:51;20.30;99.90
10388;DHT22;5240;51.128;4.566;2023-06-26T04:10:18;20.30;99.90
10388;DHT22;5240;51.128;4.566;2023-06-26T04:12:46;20.20;99.90
10388;DHT22;5240;51.128;4.566;2023-06-26T04:15:13;20.30;99.90
10388;DHT22;5240;51.128;4.566;2023-06-26T04:17:41;20.20;99.90
10388;DHT22;5240;51.128;4.566;2023-06-26T04:20:09;20.10;99.90
10388;DHT22;5240;51.128;4.566;2023-06-26T04:22:36;20.20;99.90
10388;DHT22;5240;51.128;4.566;2023-06-26T04:25:04;20.10;99.90
10388;DHT22;5240;51.128;4.566;2023-06-26T04:27:31;20.20;99.90
10388;DHT22;5240;51.128;4.566;2023-06-26T04:29:58;20.10;99.90
10388;DHT22;5240;51.128;4.566;2023-06-26T04:32:25;20.10;99.90
10388;DHT22;5240;51.128;4.566;2023-06-26T04:34:53;20.10;99.90
10388;DHT22;5240;51.128;4.566;2023-06-26T04:37:21;20.10;99.90
10388;DHT22;5240;51.128;4.566;2023-06-26T04:39:48;20.20;99.90
10388;DHT22;5240;51.128;4.566;2023-06-26T04:42:15;20.10;99.90
10388;DHT22;5240;51.128;4.566;2023-06-26T04:44:42;20.20;99.90
10388;DHT22;5240;51.128;4.566;2023-06-26T04:47:09;20.20;99.90
10388;DHT22;5240;51.128;4.566;2023-06-26T04:49:36;20.20;99.90
10388;DHT22;5240;51.128;4.566;2023-06-26T04:52:05;20.20;99.90
10388;DHT22;5240;51.128;4.566;2023-06-26T04:54:32;20.20;99.90
10388;DHT22;5240;51.128;4.566;2023-06-26T04:56:59;20.30;99.90
10388;DHT22;5240;51.128;4.566;2023-06-26T04:59:26;20.20;99.90
10388;DHT22;5240;51.128;4.566;2023-06-26T05:01:53;20.10;99.90
10388;DHT22;5240;51.128;4.566;2023-06-26T05:04:21;20.00;99.90
10388;DHT22;5240;51.128;4.566;2023-06-26T05:06:48;20.00;99.90
10388;DHT22;5240;51.128;4.566;2023-06-26T05:09:16;20.10;99.90
10388;DHT22;5240;51.128;4.566;2023-06-26T05:11:43;20.10;99.90
10388;DHT22;5240;51.128;4.566;2023-06-26T05:14:10;20.20;99.90
10388;DHT22;5240;51.128;4.566;2023-06-26T05:16:39;20.10;99.90
10388;DHT22;5240;51.128;4.566;2023-06-26T05:19:06;20.00;99.90
10388;DHT22;5240;51.128;4.566;2023-06-26T05:21:34;19.90;99.90
10388;DHT22;5240;51.128;4.566;2023-06-26T05:24:02;20.00;99.90
10388;DHT22;5240;51.128;4.566;2023-06-26T05:26:32;20.00;99.90
10388;DHT22;5240;51.128;4.566;2023-06-26T05:28:59;20.10;99.90
10388;DHT22;5240;51.128;4.566;2023-06-26T05:31:27;20.10;99.90
10388;DHT22;5240;51.128;4.566;2023-06-26T05:33:55;20.10;99.90
10388;DHT22;5240;51.128;4.566;2023-06-26T05:36:25;20.20;99.90
10388;DHT22;5240;51.128;4.566;2023-06-26T05:38:54;20.20;99.90
10388;DHT22;5240;51.128;4.566;2023-06-26T05:41:25;20.20;99.90
10388;DHT22;5240;51.128;4.566;2023-06-26T05:43:53;20.30;99.90
10388;DHT22;5240;51.128;4.566;2023-06-26T05:46:20;20.20;99.90
10388;DHT22;5240;51.128;4.566;2023-06-26T05:48:48;20.20;99.90
10388;DHT22;5240;51.128;4.566;2023-06-26T05:51:16;20.40;99.90
10388;DHT22;5240;51.128;4.566;2023-06-26T05:53:43;20.60;99.90
10388;DHT22;5240;51.128;4.566;2023-06-26T05:56:11;20.70;99.90
10388;DHT22;5240;51.128;4.566;2023-06-26T05:58:38;20.70;99.90
10388;DHT22;5240;51.128;4.566;2023-06-26T06:01:07;20.80;99.90
10388;DHT22;5240;51.128;4.566;2023-06-26T06:03:35;20.80;99.90
10388;DHT22;5240;51.128;4.566;2023-06-26T06:06:02;20.90;99.90
10388;DHT22;5240;51.128;4.566;2023-06-26T06:08:29;20.90;99.90
10388;DHT22;5240;51.128;4.566;2023-06-26T06:10:56;20.80;99.90
10388;DHT22;5240;51.128;4.566;2023-06-26T06:13:25;20.80;99.90
10388;DHT22;5240;51.128;4.566;2023-06-26T06:15:52;20.80;99.90
10388;DHT22;5240;51.128;4.566;2023-06-26T06:18:22;20.80;99.90
10388;DHT22;5240;51.128;4.566;2023-06-26T06:20:49;20.70;99.90
10388;DHT22;5240;51.128;4.566;2023-06-26T06:23:16;20.60;99.90
10388;DHT22;5240;51.128;4.566;2023-06-26T06:25:43;20.60;99.90
10388;DHT22;5240;51.128;4.566;2023-06-26T06:28:10;20.50;99.90
10388;DHT22;5240;51.128;4.566;2023-06-26T06:30:37;20.60;99.90
10388;DHT22;5240;51.128;4.566;2023-06-26T06:33:04;20.60;99.90
10388;DHT22;5240;51.128;4.566;2023-06-26T06:35:33;20.70;99.90
10388;DHT22;5240;51.128;4.566;2023-06-26T06:38:00;20.80;99.90
10388;DHT22;5240;51.128;4.566;2023-06-26T06:40:27;20.80;99.90
10388;DHT22;5240;51.128;4.566;2023-06-26T06:42:54;20.70;99.90
10388;DHT22;5240;51.128;4.566;2023-06-26T06:45:21;20.70;99.90
10388;DHT22;5240;51.128;4.566;2023-06-26T06:47:48;20.70;99.90
10388;DHT22;5240;51.128;4.566;2023-06-26T06:50:15;20.80;99.90
10388;DHT22;5240;51.128;4.566;2023-06-26T06:52:45;20.90;99.90
10388;DHT22;5240;51.128;4.566;2023-06-26T06:55:12;21.00;99.90
10388;DHT22;5240;51.128;4.566;2023-06-26T06:57:39;21.00;99.90
10388;DHT22;5240;51.128;4.566;2023-06-26T07:00:08;20.90;99.90
10388;DHT22;5240;51.128;4.566;2023-06-26T07:02:35;21.00;99.90
10388;DHT22;5240;51.128;4.566;2023-06-26T07:05:03;21.10;99.90
10388;DHT22;5240;51.128;4.566;2023-06-26T07:07:31;21.20;99.90
10388;DHT22;5240;51.128;4.566;2023-06-26T07:10:01;21.20;99.90
10388;DHT22;5240;51.128;4.566;2023-06-26T07:12:28;21.20;99.90
10388;DHT22;5240;51.128;4.566;2023-06-26T07:14:56;21.30;99.90
10388;DHT22;5240;51.128;4.566;2023-06-26T07:17:23;21.40;99.90
10388;DHT22;5240;51.128;4.566;2023-06-26T07:19:50;21.50;99.90
10388;DHT22;5240;51.128;4.566;2023-06-26T07:22:17;21.50;99.90
10388;DHT22;5240;51.128;4.566;2023-06-26T07:24:46;21.50;99.90
10388;DHT22;5240;51.128;4.566;2023-06-26T07:27:15;21.40;99.90
10388;DHT22;5240;51.128;4.566;2023-06-26T07:29:43;21.40;99.90
10388;DHT22;5240;51.128;4.566;2023-06-26T07:32:10;21.40;99.90
10388;DHT22;5240;51.128;4.566;2023-06-26T07:34:37;21.50;99.90
10388;DHT22;5240;51.128;4.566;2023-06-26T07:37:05;21.50;99.90
10388;DHT22;5240;51.128;4.566;2023-06-26T07:39:32;21.50;99.90
10388;DHT22;5240;51.128;4.566;2023-06-26T07:41:59;21.60;99.90
10388;DHT22;5240;51.128;4.566;2023-06-26T07:44:27;21.60;99.90
10388;DHT22;5240;51.128;4.566;2023-06-26T07:46:54;21.70;99.90
10388;DHT22;5240;51.128;4.566;2023-06-26T07:49:21;21.60;99.90
10388;DHT22;5240;51.128;4.566;2023-06-26T07:51:48;21.60;99.90
10388;DHT22;5240;51.128;4.566;2023-06-26T07:54:15;21.80;99.90
10388;DHT22;5240;51.128;4.566;2023-06-26T07:56:53;21.80;99.90
10388;DHT22;5240;51.128;4.566;2023-06-26T07:59:22;21.80;99.90
10388;DHT22;5240;51.128;4.566;2023-06-26T08:01:52;22.00;99.90
10388;DHT22;5240;51.128;4.566;2023-06-26T08:04:20;21.70;99.90
10388;DHT22;5240;51.128;4.566;2023-06-26T08:06:48;21.80;99.90
10388;DHT22;5240;51.128;4.566;2023-06-26T08:09:15;21.80;99.90
10388;DHT22;5240;51.128;4.566;2023-06-26T08:11:43;22.00;99.90
10388;DHT22;5240;51.128;4.566;2023-06-26T08:14:10;21.90;99.90
10388;DHT22;5240;51.128;4.566;2023-06-26T08:16:39;22.00;99.90
10388;DHT22;5240;51.128;4.566;2023-06-26T08:19:07;22.10;99.90
10388;DHT22;5240;51.128;4.566;2023-06-26T08:21:34;21.90;99.90
10388;DHT22;5240;51.128;4.566;2023-06-26T08:24:01;22.00;99.90
10388;DHT22;5240;51.128;4.566;2023-06-26T08:26:29;22.20;99.90
10388;DHT22;5240;51.128;4.566;2023-06-26T08:28:56;22.30;99.90
10388;DHT22;5240;51.128;4.566;2023-06-26T08:31:22;22.30;99.90
10388;DHT22;5240;51.128;4.566;2023-06-26T08:33:49;22.30;99.90
10388;DHT22;5240;51.128;4.566;2023-06-26T08:36:19;22.30;99.90
10388;DHT22;5240;51.128;4.566;2023-06-26T08:38:46;22.30;99.90
10388;DHT22;5240;51.128;4.566;2023-06-26T08:41:13;22.40;99.90
10388;DHT22;5240;51.128;4.566;2023-06-26T08:43:40;22.60;99.90
10388;DHT22;5240;51.128;4.566;2023-06-26T08:46:08;22.70;99.90
10388;DHT22;5240;51.128;4.566;2023-06-26T08:48:35;22.40;99.90
10388;DHT22;5240;51.128;4.566;2023-06-26T08:51:09;22.40;99.90
10388;DHT22;5240;51.128;4.566;2023-06-26T08:53:43;22.60;99.90
10388;DHT22;5240;51.128;4.566;2023-06-26T08:56:16;22.70;99.90
10388;DHT22;5240;51.128;4.566;2023-06-26T08:58:44;22.80;99.90
10388;DHT22;5240;51.128;4.566;2023-06-26T09:01:12;22.90;99.90
10388;DHT22;5240;51.128;4.566;2023-06-26T09:03:40;23.00;99.90
10388;DHT22;5240;51.128;4.566;2023-06-26T09:06:07;23.10;99.90
10388;DHT22;5240;51.128;4.566;2023-06-26T09:08:34;23.10;99.90
10388;DHT22;5240;51.128;4.566;2023-06-26T09:11:03;23.40;99.90
10388;DHT22;5240;51.128;4.566;2023-06-26T09:13:30;23.70;99.90
10388;DHT22;5240;51.128;4.566;2023-06-26T09:15:58;23.70;99.90
10388;DHT22;5240;51.128;4.566;2023-06-26T09:18:25;23.80;99.90
10388;DHT22;5240;51.128;4.566;2023-06-26T09:20:52;23.80;99.90
10388;DHT22;5240;51.128;4.566;2023-06-26T09:23:21;24.20;99.90
10388;DHT22;5240;51.128;4.566;2023-06-26T09:25:49;24.70;99.90
10388;DHT22;5240;51.128;4.566;2023-06-26T09:28:19;25.00;99.90
10388;DHT22;5240;51.128;4.566;2023-06-26T09:30:46;25.50;99.90
10388;DHT22;5240;51.128;4.566;2023-06-26T09:33:14;25.70;99.90
10388;DHT22;5240;51.128;4.566;2023-06-26T09:35:42;26.10;99.90
10388;DHT22;5240;51.128;4.566;2023-06-26T09:38:09;26.60;99.90
10388;DHT22;5240;51.128;4.566;2023-06-26T09:40:36;26.30;99.90
10388;DHT22;5240;51.128;4.566;2023-06-26T09:43:04;26.00;99.90
10388;DHT22;5240;51.128;4.566;2023-06-26T09:45:33;25.80;99.90
10388;DHT22;5240;51.128;4.566;2023-06-26T09:48:02;26.30;99.90
10388;DHT22;5240;51.128;4.566;2023-06-26T09:50:30;25.80;99.90
10388;DHT22;5240;51.128;4.566;2023-06-26T09:53:07;25.50;99.90
10388;DHT22;5240;51.128;4.566;2023-06-26T09:55:35;25.60;99.90
10388;DHT22;5240;51.128;4.566;2023-06-26T09:58:03;25.90;99.90
10388;DHT22;5240;51.128;4.566;2023-06-26T10:00:32;25.30;99.90
10388;DHT22;5240;51.128;4.566;2023-06-26T10:02:59;24.80;99.90
10388;DHT22;5240;51.128;4.566;2023-06-26T10:05:26;24.30;99.90
10388;DHT22;5240;51.128;4.566;2023-06-26T10:07:54;23.70;99.90
10388;DHT22;5240;51.128;4.566;2023-06-26T10:10:23;23.60;99.90
10388;DHT22;5240;51.128;4.566;2023-06-26T10:12:56;24.40;99.90
10388;DHT22;5240;51.128;4.566;2023-06-26T10:15:26;25.80;99.90
10388;DHT22;5240;51.128;4.566;2023-06-26T10:17:56;26.80;99.90
10388;DHT22;5240;51.128;4.566;2023-06-26T10:20:25;26.70;99.90
10388;DHT22;5240;51.128;4.566;2023-06-26T10:22:55;26.50;99.90
10388;DHT22;5240;51.128;4.566;2023-06-26T10:25:25;26.80;99.90
10388;DHT22;5240;51.128;4.566;2023-06-26T10:27:55;27.40;99.90
10388;DHT22;5240;51.128;4.566;2023-06-26T10:30:26;27.70;99.90
10388;DHT22;5240;51.128;4.566;2023-06-26T10:32:56;27.80;99.90
10388;DHT22;5240;51.128;4.566;2023-06-26T10:35:24;28.50;99.90
10388;DHT22;5240;51.128;4.566;2023-06-26T10:38:00;29.10;99.40
10388;DHT22;5240;51.128;4.566;2023-06-26T10:40:33;29.50;99.00
10388;DHT22;5240;51.128;4.566;2023-06-26T10:43:07;29.50;98.00
10388;DHT22;5240;51.128;4.566;2023-06-26T10:45:35;29.40;97.60
10388;DHT22;5240;51.128;4.566;2023-06-26T10:48:04;28.50;97.20
10388;DHT22;5240;51.128;4.566;2023-06-26T10:50:32;27.90;98.90
10388;DHT22;5240;51.128;4.566;2023-06-26T10:53:15;27.40;99.50
10388;DHT22;5240;51.128;4.566;2023-06-26T10:55:49;27.30;99.00
10388;DHT22;5240;51.128;4.566;2023-06-26T10:58:41;27.50;98.70
10388;DHT22;5240;51.128;4.566;2023-06-26T11:01:20;27.80;97.20
10388;DHT22;5240;51.128;4.566;2023-06-26T11:06:40;29.00;97.00
10388;DHT22;5240;51.128;4.566;2023-06-26T11:09:11;30.00;95.10
10388;DHT22;5240;51.128;4.566;2023-06-26T11:11:58;30.20;94.40
10388;DHT22;5240;51.128;4.566;2023-06-26T11:14:27;30.40;95.30
10388;DHT22;5240;51.128;4.566;2023-06-26T11:16:58;30.20;94.80
10388;DHT22;5240;51.128;4.566;2023-06-26T11:19:27;30.30;95.00
10388;DHT22;5240;51.128;4.566;2023-06-26T11:21:59;30.40;94.30
10388;DHT22;5240;51.128;4.566;2023-06-26T11:24:27;30.80;94.40
10388;DHT22;5240;51.128;4.566;2023-06-26T11:27:00;30.40;94.40
10388;DHT22;5240;51.128;4.566;2023-06-26T11:29:28;30.30;94.80
10388;DHT22;5240;51.128;4.566;2023-06-26T11:32:00;30.30;94.40
10388;DHT22;5240;51.128;4.566;2023-06-26T11:34:31;29.70;94.80
10388;DHT22;5240;51.128;4.566;2023-06-26T11:36:58;30.30;94.80
10388;DHT22;5240;51.128;4.566;2023-06-26T11:39:29;30.00;94.50
10388;DHT22;5240;51.128;4.566;2023-06-26T11:41:56;29.50;94.70
10388;DHT22;5240;51.128;4.566;2023-06-26T11:44:24;28.70;95.40
10388;DHT22;5240;51.128;4.566;2023-06-26T11:46:59;29.00;95.60
10388;DHT22;5240;51.128;4.566;2023-06-26T11:49:28;30.00;94.40
10388;DHT22;5240;51.128;4.566;2023-06-26T11:51:57;30.40;94.30
10388;DHT22;5240;51.128;4.566;2023-06-26T11:54:25;30.70;93.40
10388;DHT22;5240;51.128;4.566;2023-06-26T11:56:54;29.60;93.40
10388;DHT22;5240;51.128;4.566;2023-06-26T11:59:23;29.20;95.20
10388;DHT22;5240;51.128;4.566;2023-06-26T12:01:51;30.40;93.70
10388;DHT22;5240;51.128;4.566;2023-06-26T12:04:20;31.70;93.20
10388;DHT22;5240;51.128;4.566;2023-06-26T12:06:49;31.20;93.50
10388;DHT22;5240;51.128;4.566;2023-06-26T12:09:18;30.40;94.30
10388;DHT22;5240;51.128;4.566;2023-06-26T12:11:48;30.40;94.80
10388;DHT22;5240;51.128;4.566;2023-06-26T12:14:15;30.40;93.50
10388;DHT22;5240;51.128;4.566;2023-06-26T12:16:43;30.70;93.10
10388;DHT22;5240;51.128;4.566;2023-06-26T12:19:10;31.20;92.30
10388;DHT22;5240;51.128;4.566;2023-06-26T12:21:48;31.00;92.20
10388;DHT22;5240;51.128;4.566;2023-06-26T12:24:24;31.50;91.80
10388;DHT22;5240;51.128;4.566;2023-06-26T12:27:07;32.10;91.20
10388;DHT22;5240;51.128;4.566;2023-06-26T12:29:39;31.10;91.60
10388;DHT22;5240;51.128;4.566;2023-06-26T12:32:08;30.50;92.40
10388;DHT22;5240;51.128;4.566;2023-06-26T12:34:37;30.50;92.30
10388;DHT22;5240;51.128;4.566;2023-06-26T12:37:07;31.00;91.80
10388;DHT22;5240;51.128;4.566;2023-06-26T12:39:50;30.10;92.70
10388;DHT22;5240;51.128;4.566;2023-06-26T12:42:19;29.90;93.50
10388;DHT22;5240;51.128;4.566;2023-06-26T12:44:46;30.70;93.40
10388;DHT22;5240;51.128;4.566;2023-06-26T12:47:14;31.40;91.80
10388;DHT22;5240;51.128;4.566;2023-06-26T12:49:43;31.90;91.50
10388;DHT22;5240;51.128;4.566;2023-06-26T12:52:12;32.30;91.50
10388;DHT22;5240;51.128;4.566;2023-06-26T12:54:41;32.20;90.40
10388;DHT22;5240;51.128;4.566;2023-06-26T12:57:10;32.40;90.30
10388;DHT22;5240;51.128;4.566;2023-06-26T12:59:40;32.30;88.60
10388;DHT22;5240;51.128;4.566;2023-06-26T13:02:07;32.30;90.20
10388;DHT22;5240;51.128;4.566;2023-06-26T13:04:35;32.70;90.20
10388;DHT22;5240;51.128;4.566;2023-06-26T13:07:02;32.90;90.10
10388;DHT22;5240;51.128;4.566;2023-06-26T13:09:32;32.50;90.00
10388;DHT22;5240;51.128;4.566;2023-06-26T13:12:00;31.10;90.10
10388;DHT22;5240;51.128;4.566;2023-06-26T13:14:29;30.60;90.50
10388;DHT22;5240;51.128;4.566;2023-06-26T13:16:56;31.00;89.40
10388;DHT22;5240;51.128;4.566;2023-06-26T13:19:23;31.50;90.40
10388;DHT22;5240;51.128;4.566;2023-06-26T13:21:50;31.50;89.20
10388;DHT22;5240;51.128;4.566;2023-06-26T13:24:17;31.70;88.80
10388;DHT22;5240;51.128;4.566;2023-06-26T13:26:44;32.00;86.80
10388;DHT22;5240;51.128;4.566;2023-06-26T13:29:11;31.70;88.20
10388;DHT22;5240;51.128;4.566;2023-06-26T13:31:39;32.20;83.80
10388;DHT22;5240;51.128;4.566;2023-06-26T13:34:06;32.40;83.90
10388;DHT22;5240;51.128;4.566;2023-06-26T13:36:33;32.70;84.90
10388;DHT22;5240;51.128;4.566;2023-06-26T13:39:00;32.40;85.10
10388;DHT22;5240;51.128;4.566;2023-06-26T13:41:28;32.30;86.10
10388;DHT22;5240;51.128;4.566;2023-06-26T13:43:55;31.20;87.40
10388;DHT22;5240;51.128;4.566;2023-06-26T13:46:22;30.50;85.30
10388;DHT22;5240;51.128;4.566;2023-06-26T13:48:51;29.60;87.20
10388;DHT22;5240;51.128;4.566;2023-06-26T13:51:18;29.80;86.40
10388;DHT22;5240;51.128;4.566;2023-06-26T13:53:45;30.30;86.70
10388;DHT22;5240;51.128;4.566;2023-06-26T13:56:12;31.20;85.60
10388;DHT22;5240;51.128;4.566;2023-06-26T13:58:39;32.10;83.90
10388;DHT22;5240;51.128;4.566;2023-06-26T14:01:06;32.10;85.70
10388;DHT22;5240;51.128;4.566;2023-06-26T14:03:33;30.80;88.90
10388;DHT22;5240;51.128;4.566;2023-06-26T14:06:01;29.40;91.60
10388;DHT22;5240;51.128;4.566;2023-06-26T14:08:28;28.00;91.90
10388;DHT22;5240;51.128;4.566;2023-06-26T14:10:55;27.30;93.10
10388;DHT22;5240;51.128;4.566;2023-06-26T14:13:22;26.80;93.60
10388;DHT22;5240;51.128;4.566;2023-06-26T14:15:50;26.40;94.40
10388;DHT22;5240;51.128;4.566;2023-06-26T14:18:18;26.40;95.00
10388;DHT22;5240;51.128;4.566;2023-06-26T14:20:46;26.50;94.80
10388;DHT22;5240;51.128;4.566;2023-06-26T14:23:15;25.90;95.50
10388;DHT22;5240;51.128;4.566;2023-06-26T14:25:42;25.60;96.30
10388;DHT22;5240;51.128;4.566;2023-06-26T14:28:09;25.90;96.50
10388;DHT22;5240;51.128;4.566;2023-06-26T14:30:36;26.50;97.10
10388;DHT22;5240;51.128;4.566;2023-06-26T14:33:03;26.80;97.10
10388;DHT22;5240;51.128;4.566;2023-06-26T14:35:30;27.30;96.90
10388;DHT22;5240;51.128;4.566;2023-06-26T14:37:57;27.40;96.60
10388;DHT22;5240;51.128;4.566;2023-06-26T14:40:25;27.20;96.50
10388;DHT22;5240;51.128;4.566;2023-06-26T14:42:52;27.80;95.00
10388;DHT22;5240;51.128;4.566;2023-06-26T14:45:19;28.00;94.40
10388;DHT22;5240;51.128;4.566;2023-06-26T14:47:46;28.00;94.30
10388;DHT22;5240;51.128;4.566;2023-06-26T14:50:13;27.60;94.70
10388;DHT22;5240;51.128;4.566;2023-06-26T14:52:40;27.10;95.40
10388;DHT22;5240;51.128;4.566;2023-06-26T14:55:08;27.00;95.60
10388;DHT22;5240;51.128;4.566;2023-06-26T14:57:37;26.90;96.10
10388;DHT22;5240;51.128;4.566;2023-06-26T15:00:05;27.20;95.90
10388;DHT22;5240;51.128;4.566;2023-06-26T15:02:32;27.50;95.70
10388;DHT22;5240;51.128;4.566;2023-06-26T15:04:59;27.20;95.90
10388;DHT22;5240;51.128;4.566;2023-06-26T15:07:26;26.30;96.10
10388;DHT22;5240;51.128;4.566;2023-06-26T15:09:53;26.30;96.70
10388;DHT22;5240;51.128;4.566;2023-06-26T15:12:20;27.00;96.50
10388;DHT22;5240;51.128;4.566;2023-06-26T15:14:50;27.80;95.50
10388;DHT22;5240;51.128;4.566;2023-06-26T15:17:18;27.50;95.40
10388;DHT22;5240;51.128;4.566;2023-06-26T15:19:45;26.90;96.20
10388;DHT22;5240;51.128;4.566;2023-06-26T15:22:12;26.20;96.00
10388;DHT22;5240;51.128;4.566;2023-06-26T15:24:40;26.20;95.90
10388;DHT22;5240;51.128;4.566;2023-06-26T15:27:07;26.20;95.20
10388;DHT22;5240;51.128;4.566;2023-06-26T15:29:34;26.40;95.20
10388;DHT22;5240;51.128;4.566;2023-06-26T15:32:02;26.40;95.40
10388;DHT22;5240;51.128;4.566;2023-06-26T15:34:29;26.50;95.20
10388;DHT22;5240;51.128;4.566;2023-06-26T15:36:57;26.80;95.10
10388;DHT22;5240;51.128;4.566;2023-06-26T15:39:24;26.80;95.00
10388;DHT22;5240;51.128;4.566;2023-06-26T15:41:51;26.60;94.70
10388;DHT22;5240;51.128;4.566;2023-06-26T15:44:18;26.20;94.90
10388;DHT22;5240;51.128;4.566;2023-06-26T15:46:45;26.10;94.20
10388;DHT22;5240;51.128;4.566;2023-06-26T15:49:14;25.90;94.30
10388;DHT22;5240;51.128;4.566;2023-06-26T15:51:41;25.80;94.60
10388;DHT22;5240;51.128;4.566;2023-06-26T15:54:10;25.90;94.40